Time;durP1;ratioP1;P1;durP2;ratioP2;P2;SDS_P1;SDS_P2;PMS_P1;PMS_P2;Temp;Humidity;BMP_temperature;BMP_pressure;BME280_temperature;BME280_humidity;BME280_pressure;Samples;Min_cycle;Max_cycle;Signal;HPM_P1;HPM_P2
2020/12/27 00:01:14;;;;;;;20.30;16.30;;;;;;;;;;5021178;28;20459;-93
2020/12/27 00:03:42;;;;;;;23.37;16.57;;;;;;;;;;5040056;28;20486;-93
2020/12/27 00:06:07;;;;;;;36.60;23.97;;;;;;;;;;5041899;28;20669;-94
2020/12/27 00:08:33;;;;;;;32.70;23.00;;;;;;;;;;5024206;28;20808;-94
2020/12/27 00:10:59;;;;;;;20.00;15.73;;;;;;;;;;5021791;28;20463;-94
2020/12/27 00:13:26;;;;;;;20.17;16.43;;;;;;;;;;5017540;28;20452;-94
2020/12/27 00:15:52;;;;;;;16.40;12.40;;;;;;;;;;5022770;28;20452;-94
2020/12/27 00:18:18;;;;;;;36.20;30.57;;;;;;;;;;5022733;28;20503;-95
2020/12/27 00:20:44;;;;;;;55.00;39.10;;;;;;;;;;5025705;28;20487;-95
2020/12/27 00:23:10;;;;;;;33.00;27.30;;;;;;;;;;5020484;28;21100;-95
2020/12/27 00:25:38;;;;;;;31.20;23.90;;;;;;;;;;5000059;28;20453;-95
2020/12/27 00:28:04;;;;;;;21.23;14.87;;;;;;;;;;5013437;28;20471;-94
2020/12/27 00:30:31;;;;;;;17.00;9.67;;;;;;;;;;5016397;28;20508;-95
2020/12/27 00:32:57;;;;;;;14.30;10.90;;;;;;;;;;5020069;28;20459;-96
2020/12/27 00:35:23;;;;;;;22.03;12.33;;;;;;;;;;5016370;28;20458;-96
2020/12/27 00:37:49;;;;;;;14.07;10.37;;;;;;;;;;5015923;28;20467;-96
2020/12/27 00:40:15;;;;;;;12.33;9.27;;;;;;;;;;5018374;28;20486;-96
2020/12/27 00:42:41;;;;;;;13.20;9.47;;;;;;;;;;5019137;28;20444;-96
2020/12/27 00:45:07;;;;;;;12.53;7.80;;;;;;;;;;5019367;28;20450;-96
2020/12/27 00:47:34;;;;;;;9.73;8.17;;;;;;;;;;5017211;28;20559;-95
2020/12/27 00:50:00;;;;;;;13.03;9.00;;;;;;;;;;5016139;28;20551;-96
2020/12/27 00:52:26;;;;;;;11.03;8.53;;;;;;;;;;5011328;28;20461;-96
2020/12/27 00:54:52;;;;;;;13.20;8.50;;;;;;;;;;4997953;28;20464;-95
2020/12/27 00:57:18;;;;;;;15.30;9.83;;;;;;;;;;5015008;28;20472;-96
2020/12/27 00:59:44;;;;;;;18.73;11.60;;;;;;;;;;5023104;28;20499;-96
2020/12/27 01:02:10;;;;;;;16.90;12.53;;;;;;;;;;5023157;28;20466;-96
2020/12/27 01:04:37;;;;;;;19.30;10.60;;;;;;;;;;5026094;28;20456;-96
2020/12/27 01:07:03;;;;;;;19.60;10.33;;;;;;;;;;5022662;28;20472;-96
2020/12/27 01:09:29;;;;;;;14.73;9.43;;;;;;;;;;5025860;28;20478;-95
2020/12/27 01:11:55;;;;;;;10.93;7.97;;;;;;;;;;5024479;28;20486;-94
2020/12/27 01:14:21;;;;;;;20.07;11.17;;;;;;;;;;5023331;28;20472;-96
2020/12/27 01:16:48;;;;;;;10.87;8.40;;;;;;;;;;5024035;28;20495;-96
2020/12/27 01:19:14;;;;;;;15.03;9.00;;;;;;;;;;5019852;28;20491;-95
2020/12/27 01:21:43;;;;;;;10.40;7.47;;;;;;;;;;5024106;28;20490;-95
2020/12/27 01:24:09;;;;;;;15.20;9.63;;;;;;;;;;5022580;28;20486;-95
2020/12/27 01:26:36;;;;;;;16.93;10.97;;;;;;;;;;5023118;28;20471;-96
2020/12/27 01:29:02;;;;;;;18.57;13.40;;;;;;;;;;5022270;28;20475;-96
2020/12/27 01:31:29;;;;;;;14.30;9.80;;;;;;;;;;5023995;28;20444;-95
2020/12/27 01:33:55;;;;;;;19.97;11.43;;;;;;;;;;5024906;28;20451;-96
2020/12/27 01:36:24;;;;;;;16.17;12.17;;;;;;;;;;5022708;28;20476;-96
2020/12/27 01:38:51;;;;;;;11.20;8.33;;;;;;;;;;5024966;28;20447;-96
2020/12/27 01:41:19;;;;;;;12.70;10.07;;;;;;;;;;5020981;28;20439;-96
2020/12/27 01:43:56;;;;;;;16.87;13.30;;;;;;;;;;5023922;28;20464;-96
2020/12/27 01:46:22;;;;;;;13.90;11.37;;;;;;;;;;5010982;28;20448;-96
2020/12/27 01:48:49;;;;;;;11.40;8.90;;;;;;;;;;5024113;28;20459;-95
2020/12/27 01:51:14;;;;;;;12.87;8.60;;;;;;;;;;5021279;28;20467;-95
2020/12/27 01:53:41;;;;;;;13.77;9.47;;;;;;;;;;5024030;28;20455;-96
2020/12/27 01:56:09;;;;;;;13.60;9.50;;;;;;;;;;5021264;28;20452;-95
2020/12/27 01:58:38;;;;;;;13.33;8.73;;;;;;;;;;5024591;28;20538;-95
2020/12/27 02:01:04;;;;;;;15.13;8.70;;;;;;;;;;5024634;28;20455;-95
2020/12/27 02:03:30;;;;;;;15.00;9.33;;;;;;;;;;5020878;28;20463;-94
2020/12/27 02:05:56;;;;;;;15.93;9.73;;;;;;;;;;5023403;28;20452;-95
2020/12/27 02:08:22;;;;;;;12.50;7.90;;;;;;;;;;5021783;28;20485;-95
2020/12/27 02:10:49;;;;;;;14.53;9.30;;;;;;;;;;5024933;28;20486;-95
2020/12/27 02:13:16;;;;;;;16.10;9.70;;;;;;;;;;5021311;28;21834;-94
2020/12/27 02:15:42;;;;;;;13.47;8.33;;;;;;;;;;5023307;28;20452;-95
2020/12/27 02:18:08;;;;;;;12.70;8.70;;;;;;;;;;5021815;28;20479;-94
2020/12/27 02:20:34;;;;;;;17.80;9.40;;;;;;;;;;5022377;28;20510;-94
2020/12/27 02:23:00;;;;;;;13.80;8.33;;;;;;;;;;5023806;28;20467;-95
2020/12/27 02:25:27;;;;;;;13.43;9.10;;;;;;;;;;5020442;28;20463;-95
2020/12/27 02:27:53;;;;;;;12.00;8.70;;;;;;;;;;5023531;28;20452;-94
2020/12/27 02:30:19;;;;;;;13.00;8.80;;;;;;;;;;5020650;28;20464;-94
2020/12/27 02:32:45;;;;;;;15.70;9.80;;;;;;;;;;5021715;28;20468;-95
2020/12/27 02:35:12;;;;;;;14.50;8.80;;;;;;;;;;5019244;28;20482;-96
2020/12/27 02:37:38;;;;;;;13.20;8.70;;;;;;;;;;5022776;28;20458;-94
2020/12/27 02:40:04;;;;;;;11.77;8.60;;;;;;;;;;5020912;28;20511;-95
2020/12/27 02:42:31;;;;;;;10.80;7.33;;;;;;;;;;5021635;28;21048;-95
2020/12/27 02:47:40;;;;;;;11.20;6.90;;;;;;;;;;5020834;28;20458;-94
2020/12/27 02:50:08;;;;;;;13.30;8.40;;;;;;;;;;5022160;28;20487;-94
2020/12/27 02:52:34;;;;;;;13.43;8.60;;;;;;;;;;5019466;28;20498;-95
2020/12/27 02:55:00;;;;;;;11.43;8.13;;;;;;;;;;5022970;28;20490;-95
2020/12/27 02:57:26;;;;;;;11.10;7.63;;;;;;;;;;5019358;28;20793;-95
2020/12/27 02:59:53;;;;;;;11.73;8.03;;;;;;;;;;5021865;28;20526;-95
2020/12/27 03:02:19;;;;;;;12.77;9.20;;;;;;;;;;5018373;28;20479;-94
2020/12/27 03:04:45;;;;;;;12.90;8.30;;;;;;;;;;5022741;28;20451;-93
2020/12/27 03:07:11;;;;;;;13.23;7.10;;;;;;;;;;5022979;28;20466;-94
2020/12/27 03:09:37;;;;;;;11.53;8.00;;;;;;;;;;5020745;28;20459;-94
2020/12/27 03:12:03;;;;;;;9.37;7.60;;;;;;;;;;5022404;28;20463;-94
2020/12/27 03:14:29;;;;;;;11.77;8.40;;;;;;;;;;5018417;28;20451;-94
2020/12/27 03:16:56;;;;;;;10.97;8.67;;;;;;;;;;5021337;28;20452;-93
2020/12/27 03:19:22;;;;;;;11.27;8.47;;;;;;;;;;5018064;28;20495;-93
2020/12/27 03:21:48;;;;;;;12.70;9.03;;;;;;;;;;5020519;28;21040;-94
2020/12/27 03:24:14;;;;;;;12.13;8.03;;;;;;;;;;5018425;28;20448;-95
2020/12/27 03:26:40;;;;;;;12.50;8.13;;;;;;;;;;5021004;28;20458;-94
2020/12/27 03:29:06;;;;;;;11.57;7.80;;;;;;;;;;5021087;28;20462;-93
2020/12/27 03:31:32;;;;;;;10.67;7.40;;;;;;;;;;5017711;28;20475;-94
2020/12/27 03:33:59;;;;;;;11.50;8.33;;;;;;;;;;5022228;28;20958;-94
2020/12/27 03:36:25;;;;;;;31.73;9.60;;;;;;;;;;5019166;28;20447;-94
2020/12/27 03:38:52;;;;;;;12.80;8.50;;;;;;;;;;5022076;28;20451;-94
2020/12/27 03:41:18;;;;;;;10.70;7.00;;;;;;;;;;5018603;28;20471;-94
2020/12/27 03:43:44;;;;;;;10.00;7.80;;;;;;;;;;5021423;28;20468;-94
2020/12/27 03:46:10;;;;;;;10.83;8.00;;;;;;;;;;5019145;28;20463;-94
2020/12/27 03:48:36;;;;;;;13.27;7.90;;;;;;;;;;5022747;28;20452;-94
2020/12/27 03:51:03;;;;;;;12.67;8.20;;;;;;;;;;5020240;28;20475;-94
2020/12/27 03:53:29;;;;;;;10.40;7.80;;;;;;;;;;5018728;28;20459;-95
2020/12/27 03:55:55;;;;;;;12.80;8.20;;;;;;;;;;5021369;28;20463;-94
2020/12/27 03:58:21;;;;;;;12.97;7.80;;;;;;;;;;5018363;28;20452;-95
2020/12/27 04:00:47;;;;;;;14.07;7.73;;;;;;;;;;5021484;28;20499;-95
2020/12/27 04:03:13;;;;;;;11.50;7.07;;;;;;;;;;5018377;28;20955;-95
2020/12/27 04:05:39;;;;;;;12.50;8.80;;;;;;;;;;5021690;28;20452;-94
2020/12/27 04:08:06;;;;;;;14.17;8.10;;;;;;;;;;5018655;28;20487;-94
2020/12/27 04:10:32;;;;;;;11.87;8.17;;;;;;;;;;5019437;28;20471;-95
2020/12/27 04:12:58;;;;;;;13.57;8.07;;;;;;;;;;5021518;28;20494;-95
2020/12/27 04:15:24;;;;;;;13.70;8.87;;;;;;;;;;5018218;28;20459;-94
2020/12/27 04:17:50;;;;;;;15.80;8.70;;;;;;;;;;5003136;28;663986;-95
2020/12/27 04:20:16;;;;;;;14.10;9.43;;;;;;;;;;5028946;28;20248;-94
2020/12/27 04:22:42;;;;;;;16.80;9.20;;;;;;;;;;5022158;28;20448;-94
2020/12/27 04:25:09;;;;;;;11.10;8.33;;;;;;;;;;5027274;28;20446;-95
2020/12/27 04:27:35;;;;;;;16.30;8.70;;;;;;;;;;5042372;28;20442;-95
2020/12/27 04:30:01;;;;;;;12.90;9.43;;;;;;;;;;5028697;28;20542;-94
2020/12/27 04:32:27;;;;;;;15.63;9.50;;;;;;;;;;5022056;28;20955;-94
2020/12/27 04:34:53;;;;;;;14.20;8.73;;;;;;;;;;5021923;28;20455;-95
2020/12/27 04:37:19;;;;;;;19.73;10.27;;;;;;;;;;5037870;28;20454;-95
2020/12/27 04:39:45;;;;;;;15.27;10.47;;;;;;;;;;5030888;28;20494;-95
2020/12/27 04:42:11;;;;;;;14.47;10.80;;;;;;;;;;5018172;28;20455;-96
2020/12/27 04:44:39;;;;;;;15.20;9.97;;;;;;;;;;5022396;28;20460;-95
2020/12/27 04:47:05;;;;;;;12.87;9.60;;;;;;;;;;5020844;28;20464;-95
2020/12/27 04:49:31;;;;;;;15.07;9.53;;;;;;;;;;5021568;28;20805;-94
2020/12/27 04:51:59;;;;;;;12.73;8.60;;;;;;;;;;5020544;28;20455;-94
2020/12/27 04:54:26;;;;;;;12.50;9.20;;;;;;;;;;5022809;28;20456;-94
2020/12/27 04:56:52;;;;;;;14.80;9.30;;;;;;;;;;5022181;28;20451;-95
2020/12/27 04:59:19;;;;;;;13.90;9.77;;;;;;;;;;5019719;28;20491;-95
2020/12/27 05:01:45;;;;;;;18.50;9.10;;;;;;;;;;5024435;28;20489;-94
2020/12/27 05:04:17;;;;;;;13.00;8.40;;;;;;;;;;5034963;28;20470;-94
2020/12/27 05:06:44;;;;;;;13.13;9.27;;;;;;;;;;5045483;28;20706;-94
2020/12/27 05:09:10;;;;;;;19.20;10.13;;;;;;;;;;5026904;28;20468;-94
2020/12/27 05:11:36;;;;;;;14.53;8.63;;;;;;;;;;5023280;28;20453;-94
2020/12/27 05:14:03;;;;;;;16.67;9.97;;;;;;;;;;5022766;28;20462;-95
2020/12/27 05:16:30;;;;;;;17.43;10.07;;;;;;;;;;5022938;28;20479;-94
2020/12/27 05:18:58;;;;;;;15.67;9.90;;;;;;;;;;5022118;28;20495;-95
2020/12/27 05:21:24;;;;;;;15.93;11.03;;;;;;;;;;5023187;28;20472;-94
2020/12/27 05:23:50;;;;;;;17.40;10.90;;;;;;;;;;5024479;28;20443;-95
2020/12/27 05:26:16;;;;;;;14.30;10.37;;;;;;;;;;5021751;28;20471;-94
2020/12/27 05:28:43;;;;;;;15.70;10.13;;;;;;;;;;5023425;28;20480;-95
2020/12/27 05:31:12;;;;;;;15.47;10.60;;;;;;;;;;5021287;28;20448;-94
2020/12/27 05:33:39;;;;;;;15.67;11.30;;;;;;;;;;5025295;28;20491;-95
2020/12/27 05:36:05;;;;;;;21.00;12.90;;;;;;;;;;5021893;28;20463;-94
2020/12/27 05:38:32;;;;;;;17.30;11.50;;;;;;;;;;5024929;28;20467;-94
2020/12/27 05:40:57;;;;;;;18.67;10.33;;;;;;;;;;5024254;28;20495;-94
2020/12/27 05:43:23;;;;;;;16.50;11.27;;;;;;;;;;5023252;28;20943;-94
2020/12/27 05:45:52;;;;;;;15.23;10.83;;;;;;;;;;5024916;28;20456;-93
2020/12/27 05:48:18;;;;;;;20.40;12.03;;;;;;;;;;5021233;28;20477;-94
2020/12/27 05:50:45;;;;;;;12.60;9.30;;;;;;;;;;5024633;28;20460;-95
2020/12/27 05:53:16;;;;;;;17.00;11.47;;;;;;;;;;5021140;28;20459;-95
2020/12/27 05:55:44;;;;;;;12.73;9.77;;;;;;;;;;5023428;28;20951;-95
2020/12/27 05:58:10;;;;;;;16.87;11.07;;;;;;;;;;5019332;28;20480;-94
2020/12/27 06:00:36;;;;;;;15.37;10.40;;;;;;;;;;5023715;28;20495;-94
2020/12/27 06:03:02;;;;;;;14.17;10.10;;;;;;;;;;5021266;28;20467;-94
2020/12/27 06:05:38;;;;;;;14.03;10.00;;;;;;;;;;5022459;28;20459;-94
2020/12/27 06:08:18;;;;;;;13.37;9.27;;;;;;;;;;5022695;28;20465;-94
2020/12/27 06:10:55;;;;;;;14.83;9.23;;;;;;;;;;5021702;28;20478;-94
2020/12/27 06:13:39;;;;;;;12.70;9.67;;;;;;;;;;5023945;28;20510;-94
2020/12/27 06:16:07;;;;;;;14.70;10.50;;;;;;;;;;5021413;28;20894;-94
2020/12/27 06:18:39;;;;;;;41.27;25.20;;;;;;;;;;5023742;28;20479;-94
2020/12/27 06:21:07;;;;;;;46.90;28.00;;;;;;;;;;5020422;28;20526;-94
2020/12/27 06:23:34;;;;;;;52.37;32.73;;;;;;;;;;5021956;28;20444;-94
2020/12/27 06:26:01;;;;;;;47.47;30.37;;;;;;;;;;5020052;28;20472;-93
2020/12/27 06:28:28;;;;;;;49.40;31.37;;;;;;;;;;5023894;28;20452;-94
2020/12/27 06:30:55;;;;;;;40.77;27.07;;;;;;;;;;5021977;28;20824;-95
2020/12/27 06:33:24;;;;;;;38.97;27.70;;;;;;;;;;5022623;28;20460;-94
2020/12/27 06:35:49;;;;;;;41.90;27.80;;;;;;;;;;5021683;28;21040;-95
2020/12/27 06:38:16;;;;;;;44.40;27.77;;;;;;;;;;5018913;28;20464;-94
2020/12/27 06:40:44;;;;;;;32.80;21.50;;;;;;;;;;5022474;28;20506;-94
2020/12/27 06:43:17;;;;;;;26.27;16.67;;;;;;;;;;5019325;28;20448;-95
2020/12/27 06:45:43;;;;;;;20.17;15.10;;;;;;;;;;5021045;28;20463;-94
2020/12/27 06:48:09;;;;;;;24.67;16.77;;;;;;;;;;5019795;28;20468;-94
2020/12/27 06:50:45;;;;;;;29.80;18.70;;;;;;;;;;5023069;28;20455;-94
2020/12/27 06:53:29;;;;;;;24.17;16.10;;;;;;;;;;5020271;28;20455;-96
2020/12/27 06:55:58;;;;;;;39.93;25.00;;;;;;;;;;5022352;28;20462;-94
2020/12/27 06:58:24;;;;;;;57.53;37.10;;;;;;;;;;5020688;28;20467;-96
2020/12/27 07:01:09;;;;;;;54.30;35.47;;;;;;;;;;5021205;28;20487;-95
2020/12/27 07:03:35;;;;;;;44.73;27.63;;;;;;;;;;5020922;28;20471;-96
2020/12/27 07:06:15;;;;;;;39.17;26.20;;;;;;;;;;5021994;28;20459;-95
2020/12/27 07:08:42;;;;;;;39.93;27.30;;;;;;;;;;5018737;28;20455;-95
2020/12/27 07:11:09;;;;;;;34.53;23.97;;;;;;;;;;5020927;28;20448;-96
2020/12/27 07:13:40;;;;;;;34.93;22.03;;;;;;;;;;5018170;28;20459;-96
2020/12/27 07:16:09;;;;;;;28.13;20.07;;;;;;;;;;5011727;28;20490;-95
2020/12/27 07:18:36;;;;;;;28.03;19.67;;;;;;;;;;5021520;28;21153;-96
2020/12/27 07:21:02;;;;;;;28.40;20.73;;;;;;;;;;5020063;28;20502;-96
2020/12/27 07:23:30;;;;;;;25.50;18.57;;;;;;;;;;5018701;28;20510;-96
2020/12/27 07:25:57;;;;;;;31.40;17.00;;;;;;;;;;5015260;28;20448;-96
2020/12/27 07:28:24;;;;;;;27.43;19.40;;;;;;;;;;5018627;28;20462;-96
2020/12/27 07:30:55;;;;;;;28.70;20.87;;;;;;;;;;5016778;28;20448;-96
2020/12/27 07:33:26;;;;;;;35.50;24.83;;;;;;;;;;5000322;28;20464;-95
2020/12/27 07:35:58;;;;;;;33.47;24.70;;;;;;;;;;5018627;28;20456;-96
2020/12/27 07:38:31;;;;;;;40.87;27.33;;;;;;;;;;5018861;28;20459;-96
2020/12/27 07:40:57;;;;;;;46.50;28.33;;;;;;;;;;5023077;28;20499;-96
2020/12/27 07:43:24;;;;;;;45.60;29.53;;;;;;;;;;5019353;28;20467;-96
2020/12/27 07:45:51;;;;;;;37.50;27.20;;;;;;;;;;5021834;28;20463;-96
2020/12/27 07:48:17;;;;;;;34.03;22.77;;;;;;;;;;5018966;28;20535;-96
2020/12/27 07:50:43;;;;;;;36.30;23.73;;;;;;;;;;5022217;28;20465;-96
2020/12/27 07:53:09;;;;;;;34.63;23.03;;;;;;;;;;5020703;28;20468;-95
2020/12/27 07:55:37;;;;;;;25.50;18.40;;;;;;;;;;5024278;28;20463;-96
2020/12/27 07:58:04;;;;;;;29.43;19.53;;;;;;;;;;5022086;28;20464;-95
2020/12/27 08:00:32;;;;;;;32.00;21.30;;;;;;;;;;5021285;28;20476;-96
2020/12/27 08:02:58;;;;;;;32.83;23.77;;;;;;;;;;5022959;28;20779;-96
2020/12/27 08:05:25;;;;;;;36.37;26.23;;;;;;;;;;5019817;28;20464;-96
2020/12/27 08:07:54;;;;;;;40.70;28.37;;;;;;;;;;5022006;28;20470;-96
2020/12/27 08:10:21;;;;;;;51.23;32.23;;;;;;;;;;5020463;28;21492;-96
2020/12/27 08:12:48;;;;;;;44.17;29.30;;;;;;;;;;5022753;28;20455;-96
2020/12/27 08:15:14;;;;;;;45.20;31.87;;;;;;;;;;5021111;28;20630;-96
2020/12/27 08:17:51;;;;;;;48.97;33.40;;;;;;;;;;5022584;28;20475;-96
2020/12/27 08:20:17;;;;;;;47.50;31.00;;;;;;;;;;5020518;28;20491;-96
2020/12/27 08:22:43;;;;;;;46.37;30.20;;;;;;;;;;5021235;28;20475;-96
2020/12/27 08:25:12;;;;;;;50.83;34.17;;;;;;;;;;5022316;28;20471;-96
2020/12/27 08:27:38;;;;;;;42.23;32.10;;;;;;;;;;5016664;28;20456;-95
2020/12/27 08:30:04;;;;;;;47.10;35.50;;;;;;;;;;5019780;28;20451;-96
2020/12/27 08:32:30;;;;;;;37.50;25.47;;;;;;;;;;5019862;28;20467;-96
2020/12/27 08:34:57;;;;;;;39.23;26.37;;;;;;;;;;5022419;28;20447;-96
2020/12/27 08:37:25;;;;;;;33.03;22.87;;;;;;;;;;5022237;28;20472;-95
2020/12/27 08:39:53;;;;;;;37.00;24.03;;;;;;;;;;5018651;28;20484;-96
2020/12/27 08:42:23;;;;;;;32.40;23.30;;;;;;;;;;5013635;28;20475;-96
2020/12/27 08:44:53;;;;;;;34.17;24.67;;;;;;;;;;5016632;28;20550;-96
2020/12/27 08:47:26;;;;;;;38.50;27.63;;;;;;;;;;5013126;28;22238;-96
2020/12/27 08:49:56;;;;;;;41.73;26.37;;;;;;;;;;5016403;28;20513;-96
2020/12/27 08:52:24;;;;;;;38.77;26.60;;;;;;;;;;5019121;28;20456;-96
2020/12/27 08:54:52;;;;;;;39.00;26.73;;;;;;;;;;5009851;28;20499;-96
2020/12/27 08:57:19;;;;;;;39.47;26.43;;;;;;;;;;5020189;28;20527;-96
2020/12/27 08:59:57;;;;;;;38.40;26.40;;;;;;;;;;5017849;28;20476;-96
2020/12/27 09:02:23;;;;;;;41.50;28.20;;;;;;;;;;5026867;28;20479;-96
2020/12/27 09:04:58;;;;;;;49.83;31.20;;;;;;;;;;5023456;28;20486;-95
2020/12/27 09:07:30;;;;;;;49.13;31.50;;;;;;;;;;5025347;28;20447;-96
2020/12/27 09:10:02;;;;;;;46.43;32.77;;;;;;;;;;5021790;28;20452;-96
2020/12/27 09:12:28;;;;;;;49.10;32.10;;;;;;;;;;5022701;28;20464;-96
2020/12/27 09:14:54;;;;;;;53.87;36.07;;;;;;;;;;5017688;28;20480;-96
2020/12/27 09:17:22;;;;;;;53.57;33.17;;;;;;;;;;5020719;28;20459;-96
2020/12/27 09:19:48;;;;;;;56.70;37.80;;;;;;;;;;5043293;28;20490;-96
2020/12/27 09:22:14;;;;;;;52.53;39.60;;;;;;;;;;5018335;28;20471;-96
2020/12/27 09:24:41;;;;;;;63.27;43.10;;;;;;;;;;5017991;28;20452;-96
2020/12/27 09:27:08;;;;;;;64.87;42.00;;;;;;;;;;5026192;28;20452;-95
2020/12/27 09:29:34;;;;;;;54.63;39.23;;;;;;;;;;5024879;28;20448;-96
2020/12/27 09:32:07;;;;;;;62.50;42.00;;;;;;;;;;5022326;28;20494;-96
2020/12/27 09:34:33;;;;;;;59.10;41.60;;;;;;;;;;5024755;28;20451;-95
2020/12/27 09:37:10;;;;;;;54.80;38.17;;;;;;;;;;5023832;28;20487;-96
2020/12/27 09:39:36;;;;;;;57.60;40.13;;;;;;;;;;5021309;28;20474;-96
2020/12/27 09:42:03;;;;;;;57.67;39.37;;;;;;;;;;5011579;28;20469;-95
2020/12/27 09:44:29;;;;;;;52.77;38.63;;;;;;;;;;5029986;28;20444;-95
2020/12/27 09:46:57;;;;;;;38.90;28.07;;;;;;;;;;5029798;28;20447;-94
2020/12/27 09:49:24;;;;;;;39.70;26.43;;;;;;;;;;5033704;28;20907;-94
2020/12/27 09:52:03;;;;;;;29.40;20.53;;;;;;;;;;5023744;28;20485;-95
2020/12/27 09:54:30;;;;;;;25.77;19.20;;;;;;;;;;5019648;28;20452;-96
2020/12/27 09:56:56;;;;;;;21.93;15.57;;;;;;;;;;5017334;28;20535;-95
2020/12/27 09:59:23;;;;;;;23.20;16.50;;;;;;;;;;5021665;28;20478;-95
2020/12/27 10:01:49;;;;;;;20.30;14.83;;;;;;;;;;5022206;28;20448;-94
2020/12/27 10:04:15;;;;;;;26.20;17.63;;;;;;;;;;5022630;28;21060;-94
2020/12/27 10:06:41;;;;;;;23.27;16.23;;;;;;;;;;5011239;28;20468;-95
2020/12/27 10:09:07;;;;;;;27.00;17.40;;;;;;;;;;5013889;28;20468;-94
2020/12/27 10:11:33;;;;;;;25.23;18.30;;;;;;;;;;5018345;28;20458;-94
2020/12/27 10:13:59;;;;;;;28.10;19.20;;;;;;;;;;5021565;28;20460;-94
2020/12/27 10:16:26;;;;;;;23.00;17.03;;;;;;;;;;5021227;28;20500;-95
2020/12/27 10:18:52;;;;;;;21.83;16.63;;;;;;;;;;5025485;28;21069;-95
2020/12/27 10:21:18;;;;;;;24.50;18.10;;;;;;;;;;5021952;28;20570;-95
2020/12/27 10:23:44;;;;;;;26.50;18.87;;;;;;;;;;5014047;28;20995;-96
2020/12/27 10:26:12;;;;;;;26.63;19.00;;;;;;;;;;5009820;28;20440;-96
2020/12/27 10:28:38;;;;;;;26.43;17.40;;;;;;;;;;5016275;28;20467;-96
2020/12/27 10:31:04;;;;;;;24.87;17.87;;;;;;;;;;5018018;28;21003;-96
2020/12/27 10:33:31;;;;;;;25.13;18.87;;;;;;;;;;5014022;28;20464;-96
2020/12/27 10:35:57;;;;;;;28.77;19.17;;;;;;;;;;5017847;28;20448;-96
2020/12/27 10:38:24;;;;;;;40.07;26.63;;;;;;;;;;5018974;28;20464;-94
2020/12/27 10:40:50;;;;;;;51.83;35.50;;;;;;;;;;5018825;28;20491;-96
2020/12/27 10:43:16;;;;;;;44.60;31.97;;;;;;;;;;5015158;28;20458;-96
2020/12/27 10:45:42;;;;;;;54.37;36.17;;;;;;;;;;5017812;28;21143;-96
2020/12/27 10:48:08;;;;;;;77.13;49.07;;;;;;;;;;5018014;28;20604;-96
2020/12/27 10:50:38;;;;;;;90.00;54.30;;;;;;;;;;5022013;28;20452;-96
2020/12/27 10:53:04;;;;;;;69.83;47.30;;;;;;;;;;5023493;28;20478;-96
2020/12/27 10:55:30;;;;;;;69.97;46.70;;;;;;;;;;5018930;28;20463;-95
2020/12/27 10:57:56;;;;;;;68.90;45.10;;;;;;;;;;5021674;28;20467;-96
2020/12/27 11:00:22;;;;;;;73.77;46.37;;;;;;;;;;5018030;28;20506;-96
2020/12/27 11:02:48;;;;;;;75.50;47.17;;;;;;;;;;5022608;28;20456;-96
2020/12/27 11:05:15;;;;;;;72.37;46.47;;;;;;;;;;5022338;28;20460;-96
2020/12/27 11:07:42;;;;;;;69.37;44.87;;;;;;;;;;5023312;28;20464;-95
2020/12/27 11:10:08;;;;;;;74.33;46.27;;;;;;;;;;5020740;28;20455;-96
2020/12/27 11:12:34;;;;;;;69.13;43.20;;;;;;;;;;5022920;28;20470;-96
2020/12/27 11:15:00;;;;;;;68.53;43.77;;;;;;;;;;5026050;28;20447;-96
2020/12/27 11:17:26;;;;;;;67.47;43.40;;;;;;;;;;5019324;28;20479;-96
2020/12/27 11:19:52;;;;;;;67.97;42.00;;;;;;;;;;5021998;28;20552;-96
2020/12/27 11:22:25;;;;;;;72.53;44.83;;;;;;;;;;5021318;28;20455;-96
2020/12/27 11:24:53;;;;;;;56.27;37.60;;;;;;;;;;5025723;28;20508;-96
2020/12/27 11:27:19;;;;;;;48.70;32.80;;;;;;;;;;5020797;28;20515;-96
2020/12/27 11:29:45;;;;;;;49.77;35.60;;;;;;;;;;5022635;28;20447;-96
2020/12/27 11:32:11;;;;;;;47.80;33.53;;;;;;;;;;5022464;28;20472;-96
2020/12/27 11:34:37;;;;;;;46.07;33.27;;;;;;;;;;5020899;28;20456;-95
2020/12/27 11:37:03;;;;;;;51.60;35.27;;;;;;;;;;5021698;28;20492;-96
2020/12/27 11:39:29;;;;;;;48.70;34.50;;;;;;;;;;5019748;28;20974;-94
2020/12/27 11:41:56;;;;;;;49.00;32.20;;;;;;;;;;5022704;28;20448;-96
2020/12/27 11:44:22;;;;;;;45.87;34.20;;;;;;;;;;5020568;28;20456;-96
2020/12/27 11:46:48;;;;;;;47.63;36.03;;;;;;;;;;5022618;28;20470;-95
2020/12/27 11:49:14;;;;;;;46.47;33.87;;;;;;;;;;5017821;28;20452;-95
2020/12/27 11:51:40;;;;;;;45.27;33.73;;;;;;;;;;5021727;28;20451;-96
2020/12/27 11:54:07;;;;;;;45.53;33.37;;;;;;;;;;5020979;28;20460;-96
2020/12/27 11:56:33;;;;;;;44.23;32.87;;;;;;;;;;5023667;28;20469;-96
2020/12/27 11:59:00;;;;;;;46.57;33.13;;;;;;;;;;5022479;28;20464;-95
2020/12/27 12:01:26;;;;;;;45.37;33.60;;;;;;;;;;5019996;28;20561;-96
2020/12/27 12:03:52;;;;;;;44.87;31.93;;;;;;;;;;5022621;28;20449;-95
2020/12/27 12:06:22;;;;;;;40.40;31.00;;;;;;;;;;5019309;28;20475;-96
2020/12/27 12:08:48;;;;;;;40.63;29.70;;;;;;;;;;5020706;28;20457;-96
2020/12/27 12:11:14;;;;;;;40.97;29.17;;;;;;;;;;5019266;28;20468;-96
2020/12/27 12:13:40;;;;;;;38.13;28.17;;;;;;;;;;5025863;28;20445;-96
2020/12/27 12:16:07;;;;;;;38.30;27.53;;;;;;;;;;5023046;28;20459;-96
2020/12/27 12:18:33;;;;;;;38.00;28.17;;;;;;;;;;5025588;28;20475;-95
2020/12/27 12:20:59;;;;;;;39.00;28.90;;;;;;;;;;5025758;28;20492;-95
2020/12/27 12:23:25;;;;;;;42.27;27.40;;;;;;;;;;5024250;28;20486;-94
2020/12/27 12:25:51;;;;;;;36.90;25.50;;;;;;;;;;5026458;28;20476;-95
2020/12/27 12:28:17;;;;;;;36.10;25.77;;;;;;;;;;5022426;28;20451;-96
2020/12/27 12:30:43;;;;;;;36.13;25.70;;;;;;;;;;5025248;28;20451;-96
2020/12/27 12:33:11;;;;;;;35.83;25.63;;;;;;;;;;5024371;28;20917;-96
2020/12/27 12:35:37;;;;;;;35.63;26.03;;;;;;;;;;5020201;28;20543;-96
2020/12/27 12:38:04;;;;;;;41.23;29.43;;;;;;;;;;5027711;28;20468;-96
2020/12/27 12:40:30;;;;;;;42.50;29.50;;;;;;;;;;5025178;28;20566;-96
2020/12/27 12:42:56;;;;;;;48.83;31.83;;;;;;;;;;5024201;28;20444;-96
2020/12/27 12:45:22;;;;;;;56.17;34.47;;;;;;;;;;5019885;28;20451;-96
2020/12/27 12:47:48;;;;;;;49.90;32.20;;;;;;;;;;5023519;28;20486;-96
2020/12/27 12:50:15;;;;;;;43.87;30.70;;;;;;;;;;5021780;28;20952;-96
2020/12/27 12:52:41;;;;;;;47.30;31.70;;;;;;;;;;5023956;28;20448;-96
2020/12/27 12:55:08;;;;;;;50.90;32.93;;;;;;;;;;5020400;28;20571;-96
2020/12/27 12:57:34;;;;;;;49.17;33.07;;;;;;;;;;5023715;28;20515;-95
2020/12/27 13:00:00;;;;;;;49.93;34.00;;;;;;;;;;5019231;28;20479;-95
2020/12/27 13:02:26;;;;;;;60.27;42.07;;;;;;;;;;5023729;28;20475;-96
2020/12/27 13:04:52;;;;;;;66.03;43.03;;;;;;;;;;5023827;28;20467;-96
2020/12/27 13:07:19;;;;;;;87.53;50.60;;;;;;;;;;5020818;28;20451;-96
2020/12/27 13:09:45;;;;;;;77.00;49.93;;;;;;;;;;5024952;28;20510;-96
2020/12/27 13:12:11;;;;;;;74.60;47.83;;;;;;;;;;5022236;28;20471;-96
2020/12/27 13:14:38;;;;;;;71.57;47.93;;;;;;;;;;5024748;28;20494;-96
2020/12/27 13:17:04;;;;;;;74.13;50.20;;;;;;;;;;5022313;28;20981;-96
2020/12/27 13:19:30;;;;;;;76.53;50.70;;;;;;;;;;5043106;28;20466;-95
2020/12/27 13:21:56;;;;;;;75.30;50.73;;;;;;;;;;5039173;28;20506;-95
2020/12/27 13:24:23;;;;;;;83.20;55.40;;;;;;;;;;5023283;28;20471;-95
2020/12/27 13:26:49;;;;;;;83.67;59.00;;;;;;;;;;5009781;28;20652;-96
2020/12/27 13:29:15;;;;;;;95.60;61.97;;;;;;;;;;5018521;28;20496;-96
2020/12/27 13:31:42;;;;;;;110.27;75.00;;;;;;;;;;5021973;28;20478;-96
2020/12/27 13:34:08;;;;;;;120.63;84.60;;;;;;;;;;5019672;28;20465;-96
2020/12/27 13:36:34;;;;;;;104.47;70.70;;;;;;;;;;5023232;28;20464;-96
2020/12/27 13:39:00;;;;;;;94.47;61.03;;;;;;;;;;5022466;28;20455;-96
2020/12/27 13:41:27;;;;;;;76.23;53.53;;;;;;;;;;5022568;28;20503;-96
2020/12/27 13:43:53;;;;;;;84.33;52.33;;;;;;;;;;5017680;28;20542;-95
2020/12/27 13:46:19;;;;;;;84.03;52.93;;;;;;;;;;5022263;28;20471;-96
2020/12/27 13:48:45;;;;;;;88.33;55.80;;;;;;;;;;5023005;28;20459;-95
2020/12/27 13:51:11;;;;;;;86.03;51.50;;;;;;;;;;5024051;28;20444;-95
2020/12/27 13:53:37;;;;;;;92.80;52.40;;;;;;;;;;5017201;28;20807;-96
2020/12/27 13:56:03;;;;;;;82.37;51.83;;;;;;;;;;5030526;28;20455;-95
2020/12/27 13:58:30;;;;;;;89.97;56.37;;;;;;;;;;5019134;28;20494;-96
2020/12/27 14:00:56;;;;;;;90.57;56.97;;;;;;;;;;5021021;28;20496;-96
2020/12/27 14:03:22;;;;;;;112.40;71.03;;;;;;;;;;5017002;28;20468;-95
2020/12/27 14:05:48;;;;;;;106.43;63.63;;;;;;;;;;5014437;28;20459;-96
2020/12/27 14:08:14;;;;;;;100.57;62.80;;;;;;;;;;5020313;28;20470;-96
2020/12/27 14:10:40;;;;;;;100.43;61.40;;;;;;;;;;5014935;28;20453;-96
2020/12/27 14:13:06;;;;;;;108.23;65.37;;;;;;;;;;5012427;28;20464;-96
2020/12/27 14:15:33;;;;;;;102.90;65.77;;;;;;;;;;5020637;28;20506;-96
2020/12/27 14:18:00;;;;;;;108.73;68.00;;;;;;;;;;5031457;28;20490;-95
2020/12/27 14:20:26;;;;;;;118.47;71.90;;;;;;;;;;5043395;28;21081;-96
2020/12/27 14:22:52;;;;;;;118.70;72.70;;;;;;;;;;5025775;28;20475;-96